createdAt,value
2019-04-24T00:00:20.323Z,80.15
2019-04-24T00:01:07.330Z,80.43
2019-04-24T00:02:14.573Z,80.34
2019-04-24T00:03:04.224Z,80.34
2019-04-24T00:04:08.912Z,80.24
2019-04-24T00:05:08.640Z,80.43
2019-04-24T00:06:07.630Z,79.67
2019-04-24T00:06:56.904Z,80.05
2019-04-24T00:08:00.012Z,80.63
2019-04-24T00:08:52.704Z,79.91
2019-04-24T00:09:48.953Z,80.01
2019-04-24T00:11:05.586Z,81.07
2019-04-24T00:12:53.316Z,80.58
2019-04-24T00:14:49.469Z,80.4
2019-04-24T00:15:50.875Z,80.87
2019-04-24T00:17:39.750Z,81.07
2019-04-24T00:19:29.808Z,80.87
2019-04-24T00:20:34.168Z,80.87
2019-04-24T00:22:24.986Z,80.87
2019-04-24T00:23:34.377Z,80.97
2019-04-24T00:26:25.207Z,81.26
2019-04-24T00:27:22.911Z,80.97
2019-04-24T00:28:41.778Z,81.35
2019-04-24T00:29:25.840Z,81.64
2019-04-24T00:31:16.053Z,81.6
2019-04-24T00:32:15.021Z,81.26
2019-04-24T00:33:19.888Z,81.45
2019-04-24T00:36:32.182Z,81.7
2019-04-24T00:37:13.862Z,81.7
2019-04-24T00:38:20.418Z,81.7
2019-04-24T00:40:00.735Z,81.79
2019-04-24T00:42:07.851Z,81.79
2019-04-24T00:43:18.879Z,83.04
2019-04-24T00:45:06.692Z,82.65
2019-04-24T00:46:06.062Z,82.75
2019-04-24T00:47:07.041Z,83.33
2019-04-24T00:48:05.633Z,82.94
2019-04-24T00:49:51.407Z,83.95
2019-04-24T00:51:06.081Z,84.44
2019-04-24T00:53:19.292Z,83.58
2019-04-24T00:54:44.050Z,83.52
2019-04-24T00:55:52.506Z,82.85
2019-04-24T00:56:58.355Z,83.14
2019-04-24T00:57:45.990Z,83.04
2019-04-24T00:58:41.515Z,82.75
2019-04-24T00:59:39.220Z,83.04
2019-04-24T01:00:49.923Z,83.52
2019-04-24T01:01:53.051Z,83.76
2019-04-24T01:02:53.893Z,83.81
2019-04-24T01:03:37.499Z,83.81
2019-04-24T01:06:33.684Z,83.38
2019-04-24T01:07:35.583Z,83.86
2019-04-24T01:08:23.484Z,83.71
2019-04-24T01:09:37.363Z,83.71
2019-04-24T01:11:18.246Z,83.61
2019-04-24T01:12:27.746Z,83.86
2019-04-24T01:13:31.023Z,84.82
2019-04-24T01:16:21.215Z,84.63
2019-04-24T01:18:13.935Z,83.71
2019-04-24T01:21:12.246Z,84.05
2019-04-24T01:23:18.422Z,84.34
2019-04-24T01:24:10.615Z,84.72
2019-04-24T01:25:21.403Z,85.21
2019-04-24T01:26:07.927Z,85.49
2019-04-24T01:27:04.759Z,85.49
2019-04-24T01:28:07.171Z,85.49
2019-04-24T01:29:00.948Z,85.39
2019-04-24T01:33:04.412Z,86.35
2019-04-24T01:33:54.984Z,86.5
2019-04-24T01:34:53.205Z,87.46
2019-04-24T01:35:57.507Z,87.55
2019-04-24T01:36:57.051Z,88.32
2019-04-24T01:38:48.828Z,87.46
2019-04-24T01:39:55.355Z,87.27
2019-04-24T01:40:49.109Z,87.31
2019-04-24T01:41:42.402Z,86.93
2019-04-24T01:43:41.635Z,87.02
2019-04-24T01:44:44.089Z,86.74
2019-04-24T01:45:45.162Z,87.41
2019-04-24T01:46:33.143Z,87.41
2019-04-24T01:48:35.683Z,86.45
2019-04-24T01:49:37.831Z,87.27
2019-04-24T01:50:32.582Z,87.17
2019-04-24T01:51:38.950Z,87.27
2019-04-24T01:53:35.234Z,86.64
2019-04-24T01:54:29.747Z,86.35
2019-04-24T01:55:17.879Z,86.35
2019-04-24T01:56:22.317Z,86.69
2019-04-24T01:58:31.945Z,86.88
2019-04-24T02:00:25.546Z,86.88
2019-04-24T02:02:18.828Z,87.37
2019-04-24T02:03:09.967Z,87.27
2019-04-24T02:04:11.157Z,87.37
2019-04-24T02:05:09.518Z,88.03
2019-04-24T02:06:19.226Z,88.32
2019-04-24T02:07:16.745Z,87.37
2019-04-24T02:08:16.155Z,87.27
2019-04-24T02:10:24.060Z,87.27
2019-04-24T02:11:07.858Z,86.88
2019-04-24T02:13:08.551Z,87.08
2019-04-24T02:13:57.732Z,86.69
2019-04-24T02:16:00.222Z,86.79
2019-04-24T02:17:57.959Z,87.27
2019-04-24T02:18:47.729Z,86.79
2019-04-24T02:19:44.205Z,87.08
2019-04-24T02:21:45.392Z,86.79
2019-04-24T02:22:47.909Z,86.6
2019-04-24T02:24:43.364Z,86.21
2019-04-24T02:25:57.725Z,86.5
2019-04-24T02:27:43.263Z,85.68
2019-04-24T02:28:35.842Z,85.54
2019-04-24T02:29:29.479Z,85.64
2019-04-24T02:31:03.978Z,85.74
2019-04-24T02:31:38.997Z,85.78
2019-04-24T02:32:45.868Z,85.54
2019-04-24T02:33:50.023Z,85.54
2019-04-24T02:34:39.451Z,85.64
2019-04-24T02:36:37.382Z,86.21
2019-04-24T02:37:38.941Z,86.5
2019-04-24T02:39:40.176Z,86.6
2019-04-24T02:43:29.188Z,85.06
2019-04-24T02:45:24.106Z,84.25
2019-04-24T02:46:22.715Z,83.34
2019-04-24T02:47:18.660Z,83.63
2019-04-24T02:48:22.497Z,82.76
2019-04-24T02:50:22.442Z,82.23
2019-04-24T02:51:15.374Z,81.81
2019-04-24T02:55:08.223Z,84.58
2019-04-24T02:56:16.328Z,84.58
2019-04-24T02:58:11.078Z,85.21
2019-04-24T03:00:09.291Z,86.08
2019-04-24T03:03:04.037Z,84.74
2019-04-24T03:03:59.103Z,84.45
2019-04-24T03:05:55.194Z,84.74
2019-04-24T03:07:02.355Z,84.92
2019-04-24T03:08:54.726Z,85.41
2019-04-24T03:10:41.713Z,86.08
2019-04-24T03:13:08.035Z,86.27
2019-04-24T03:13:58.715Z,86.17
2019-04-24T03:14:48.294Z,86.13
2019-04-24T03:17:07.889Z,85.88
2019-04-24T03:19:43.319Z,85.6
2019-04-24T03:21:51.408Z,85.6
2019-04-24T03:22:33.976Z,85.6
2019-04-24T03:23:31.854Z,85.88
2019-04-24T03:28:14.556Z,86.46
2019-04-24T03:30:34.097Z,87.13
2019-04-24T03:38:27.195Z,87.03
2019-04-24T03:39:16.773Z,87.61
2019-04-24T03:44:18.676Z,89.38
2019-04-24T03:45:16.456Z,88.66
2019-04-24T03:46:44.845Z,88.76
2019-04-24T03:49:03.103Z,89.14
2019-04-24T03:50:00.507Z,89.14
2019-04-24T03:52:05.872Z,89.33
2019-04-24T03:52:53.183Z,89.43
2019-04-24T03:53:59.163Z,88.95
2019-04-24T03:54:48.820Z,88.85
2019-04-24T03:57:53.527Z,88.95
2019-04-24T03:59:37.711Z,89.23
2019-04-24T04:03:30.245Z,88.85
2019-04-24T04:06:40.474Z,89.14
2019-04-24T04:07:16.363Z,89.62
2019-04-24T04:08:48.880Z,89.52
2019-04-24T04:09:38.034Z,89.52
2019-04-24T04:10:27.516Z,89.72
2019-04-24T04:12:36.172Z,90.09
2019-04-24T04:14:31.247Z,90.72
2019-04-24T04:15:18.050Z,90.39
2019-04-24T04:16:29.259Z,90.29
2019-04-24T04:19:14.470Z,90.29
2019-04-24T04:22:14.936Z,90.19
2019-04-24T04:26:22.523Z,90.67
2019-04-24T04:27:58.915Z,90.67
2019-04-24T04:31:42.003Z,89.43
2019-04-24T04:34:51.908Z,89.72
2019-04-24T04:37:48.321Z,90
2019-04-24T04:39:48.322Z,88.95
2019-04-24T04:40:54.351Z,88.95
2019-04-24T04:42:48.516Z,89.9
2019-04-24T04:43:46.420Z,88.95
2019-04-24T04:46:02.608Z,89.14
2019-04-24T04:50:38.771Z,90.09
2019-04-24T04:51:25.245Z,90.09
2019-04-24T04:54:47.257Z,89.28
2019-04-24T04:57:23.214Z,88.61
2019-04-24T04:59:09.003Z,87.94
2019-04-24T05:01:19.031Z,87.37
2019-04-24T05:02:12.276Z,87.65
2019-04-24T05:04:10.734Z,87.17
2019-04-24T05:05:22.487Z,87.74
2019-04-24T05:06:14.619Z,87.31
2019-04-24T05:08:12.802Z,86.45
2019-04-24T05:09:56.566Z,86.83
2019-04-24T05:10:54.603Z,87.5
2019-04-24T05:11:57.537Z,87.21
2019-04-24T05:14:17.349Z,86.83
2019-04-24T05:15:54.017Z,86.64
2019-04-24T05:16:56.112Z,86.74
2019-04-24T05:19:05.943Z,85.92
2019-04-24T05:20:47.239Z,85.92
2019-04-24T05:21:50.386Z,85.44
2019-04-24T05:22:31.835Z,85.92
2019-04-24T05:24:00.557Z,85.77
2019-04-24T05:24:44.543Z,85.1
2019-04-24T05:28:43.662Z,85.86
2019-04-24T05:31:03.365Z,85.24
2019-04-24T05:33:25.827Z,84.37
2019-04-24T05:35:52.954Z,82.84
2019-04-24T05:36:57.535Z,82.35
2019-04-24T05:37:56.142Z,82.31
2019-04-24T05:40:48.860Z,99.99
2019-04-24T05:41:54.902Z,99.99
2019-04-24T05:43:02.438Z,93.15
2019-04-24T05:44:52.067Z,84.08
2019-04-24T05:45:59.411Z,83.07
2019-04-24T05:49:11.514Z,81.63
2019-04-24T05:50:25.987Z,82.3
2019-04-24T05:51:09.664Z,82.4
2019-04-24T05:51:59.221Z,82.05
2019-04-24T05:53:02.548Z,80.76
2019-04-24T05:54:02.279Z,81.28
2019-04-24T05:54:50.784Z,81.09
2019-04-24T05:57:09.275Z,80.61
2019-04-24T05:58:02.722Z,81.19
2019-04-24T05:58:57.748Z,80.47
2019-04-24T06:01:00.389Z,82.01
2019-04-24T06:02:50.639Z,99.99
2019-04-24T06:08:06.221Z,95.89
2019-04-24T06:08:41.289Z,99.99
2019-04-24T06:09:42.706Z,89.88
2019-04-24T06:10:46.833Z,85.94
2019-04-24T06:11:50.684Z,85.07
2019-04-24T06:12:46.472Z,82.53
2019-04-24T06:14:35.684Z,99.99
2019-04-24T06:16:30.272Z,96.9
2019-04-24T06:17:29.386Z,91.32
2019-04-24T06:18:37.140Z,90.84
2019-04-24T06:19:32.280Z,99.99
2019-04-24T06:20:49.171Z,99.99
2019-04-24T06:21:22.789Z,98.39
2019-04-24T06:23:34.268Z,85.21
2019-04-24T06:24:20.820Z,82.42
2019-04-24T06:25:31.947Z,83.19
2019-04-24T06:26:18.195Z,95.7
2019-04-24T06:29:22.945Z,99.99
2019-04-24T06:31:00.338Z,99.99
2019-04-24T06:32:52.866Z,99.99
2019-04-24T06:34:01.528Z,90.02
2019-04-24T06:35:03.753Z,83.19
2019-04-24T06:35:56.251Z,81.27
2019-04-24T06:47:53.726Z,91.46
2019-04-24T06:49:10.064Z,92.94
2019-04-24T06:51:25.966Z,86.01
2019-04-24T06:52:45.946Z,99.59
2019-04-24T06:53:23.339Z,98.39
2019-04-24T06:54:34.541Z,99.99
2019-04-24T06:55:23.126Z,99.99
2019-04-24T06:56:26.372Z,92.13
2019-04-24T06:59:02.800Z,90.58
2019-04-24T07:00:27.809Z,86.48
2019-04-24T07:02:01.093Z,81.95
2019-04-24T07:02:59.872Z,94.78
2019-04-24T07:06:21.435Z,87.1
2019-04-24T07:07:11.277Z,84.59
2019-04-24T07:07:44.500Z,97.42
2019-04-24T07:09:13.747Z,92.7
2019-04-24T07:12:55.617Z,90.23
2019-04-24T07:14:00.829Z,90.62
2019-04-24T07:14:45.445Z,80.97
2019-04-24T07:17:15.331Z,81.7
2019-04-24T07:17:58.416Z,81.12
2019-04-24T07:18:32.616Z,83.2
2019-04-24T07:21:42.966Z,80.12
2019-04-24T07:22:51.442Z,78.58
2019-04-24T07:23:38.061Z,77.9
2019-04-24T07:25:55.654Z,75.92
2019-04-24T07:26:28.592Z,76.59
2019-04-24T07:29:34.889Z,83.92
2019-04-24T07:30:39.723Z,81.32
2019-04-24T07:31:40.551Z,79.77
2019-04-24T07:32:32.899Z,82.57
2019-04-24T07:33:27.768Z,82.34
2019-04-24T07:34:31.187Z,80.89
2019-04-24T07:37:16.264Z,80.74
2019-04-24T07:38:14.496Z,82.76
2019-04-24T07:39:16.901Z,77.65
2019-04-24T07:40:02.773Z,80.78
2019-04-24T07:41:15.127Z,79.87
2019-04-24T07:43:17.702Z,88.59
2019-04-24T07:44:06.929Z,83.48
2019-04-24T07:45:04.283Z,79.04
2019-04-24T07:46:01.560Z,75.62
2019-04-24T07:47:01.058Z,80.06
2019-04-24T07:47:59.779Z,80.54
2019-04-24T07:49:58.172Z,93.52
2019-04-24T07:51:06.719Z,98.87
2019-04-24T07:54:54.754Z,89.85
2019-04-24T07:56:03.463Z,95.93
2019-04-24T07:57:00.688Z,94.2
2019-04-24T07:57:43.966Z,94.96
2019-04-24T07:58:57.652Z,83.77
2019-04-24T08:01:53.622Z,86.76
2019-04-24T08:02:56.377Z,82.23
2019-04-24T08:05:31.582Z,77.46
2019-04-24T08:06:47.498Z,76.01
2019-04-24T08:08:43.798Z,80.06
2019-04-24T08:09:50.916Z,80.16
2019-04-24T08:10:30.306Z,79.49
2019-04-24T08:11:35.579Z,75.92
2019-04-24T08:13:23.200Z,76.88
2019-04-24T08:14:42.181Z,81.22
2019-04-24T08:15:31.787Z,85.85
2019-04-24T08:16:13.528Z,80.78
2019-04-24T08:17:38.754Z,85.89
2019-04-24T08:18:17.687Z,84.25
2019-04-24T08:19:28.460Z,79.43
2019-04-24T08:21:29.800Z,79.49
2019-04-24T08:22:18.579Z,78.17
2019-04-24T08:23:16.887Z,77.88
2019-04-24T08:24:12.277Z,79.29
2019-04-24T08:25:11.956Z,80.74
2019-04-24T08:26:04.056Z,79.39
2019-04-24T08:27:15.352Z,75.95
2019-04-24T08:28:04.687Z,72.67
2019-04-24T08:31:59.578Z,81.93
2019-04-24T08:34:17.818Z,78.59
2019-04-24T08:34:51.392Z,77.73
2019-04-24T08:35:59.651Z,78.15
2019-04-24T08:37:15.067Z,75.35
2019-04-24T08:38:09.460Z,78.25
2019-04-24T08:39:47.618Z,72.36
2019-04-24T08:42:58.830Z,81.98
2019-04-24T08:43:52.711Z,80.24
2019-04-24T08:44:56.107Z,73.28
2019-04-24T08:45:36.782Z,69.32
2019-04-24T08:46:45.996Z,68.23
2019-04-24T08:47:52.003Z,68.07
2019-04-24T08:49:41.531Z,76.95
2019-04-24T08:51:01.336Z,78.21
2019-04-24T08:51:27.934Z,77.05
2019-04-24T08:52:50.683Z,76.95
2019-04-24T08:53:41.258Z,79.47
2019-04-24T08:54:27.153Z,79.66
2019-04-24T08:55:34.266Z,77.92
2019-04-24T08:56:26.344Z,74.44
2019-04-24T08:58:26.147Z,80.24
2019-04-24T08:59:53.993Z,74.38
2019-04-24T09:00:23.378Z,72.03
2019-04-24T09:01:23.999Z,71.06
2019-04-24T09:02:12.272Z,75.31
2019-04-24T09:05:05.735Z,79.27
2019-04-24T09:06:01.781Z,83.81
2019-04-24T09:07:02.756Z,83
2019-04-24T09:10:35.051Z,73.38
2019-04-24T09:11:08.424Z,70.84
2019-04-24T09:14:21.170Z,69.29
2019-04-24T09:15:15.371Z,81.45
2019-04-24T09:15:57.599Z,78.94
2019-04-24T09:21:56.623Z,69.23
2019-04-24T09:22:48.416Z,72.8
2019-04-24T09:24:16.696Z,73.38
2019-04-24T09:25:09.348Z,77.63
2019-04-24T09:26:07.533Z,77.11
2019-04-24T09:30:53.551Z,79.33
2019-04-24T09:31:43.818Z,79.97
2019-04-24T09:33:52.915Z,75.14
2019-04-24T09:34:35.179Z,70.8
2019-04-24T09:36:00.033Z,78.33
2019-04-24T09:36:46.769Z,77.46
2019-04-24T09:37:46.185Z,80.26
2019-04-24T09:38:37.232Z,81.02
2019-04-24T09:39:29.576Z,81.7
2019-04-24T09:40:57.295Z,77.65
2019-04-24T09:42:55.483Z,79.33
2019-04-24T09:43:25.434Z,85.99
2019-04-24T09:45:24.811Z,74.6
2019-04-24T09:46:24.828Z,73.93
2019-04-24T09:47:21.488Z,72.96
2019-04-24T09:48:29.892Z,72.67
2019-04-24T09:49:01.812Z,70.68
2019-04-24T09:50:14.895Z,68.55
2019-04-24T09:51:28.265Z,68.46
2019-04-24T09:52:13.441Z,76.76
2019-04-24T09:54:11.343Z,74.73
2019-04-24T09:55:08.237Z,76.37
2019-04-24T09:55:52.720Z,73.86
2019-04-24T09:57:05.938Z,74.54
2019-04-24T09:58:06.671Z,76.76
2019-04-24T09:59:06.046Z,79.75
2019-04-24T09:59:56.677Z,77.83
2019-04-24T10:02:54.916Z,76.92
2019-04-24T10:04:01.554Z,79.52
2019-04-24T10:07:11.835Z,75.51
2019-04-24T10:07:48.700Z,71.26
2019-04-24T10:08:46.503Z,74.93
2019-04-24T10:09:45.893Z,75.22
2019-04-24T10:10:41.954Z,75.45
2019-04-24T10:13:41.259Z,67.82
2019-04-24T10:14:39.021Z,74.19
2019-04-24T10:15:41.828Z,68.3
2019-04-24T10:16:45.335Z,70.9
2019-04-24T10:17:44.324Z,70.42
2019-04-24T10:18:50.983Z,73.52
2019-04-24T10:19:55.688Z,72.06
2019-04-24T10:20:28.602Z,72.36
2019-04-24T10:21:26.947Z,68.4
2019-04-24T10:22:38.780Z,79.5
2019-04-24T10:23:34.446Z,77.09
2019-04-24T10:24:31.061Z,73.8
2019-04-24T10:27:30.739Z,84.14
2019-04-24T10:28:28.064Z,81.53
2019-04-24T10:30:12.090Z,80.95
2019-04-24T10:31:12.972Z,78.64
2019-04-24T10:33:11.989Z,78.64
2019-04-24T10:34:11.862Z,75.48
2019-04-24T10:35:16.185Z,70.36
2019-04-24T10:36:10.011Z,67.85
2019-04-24T10:37:08.545Z,70.17
2019-04-24T10:38:23.017Z,79.25
2019-04-24T10:39:14.307Z,82.54
2019-04-24T10:40:14.597Z,80.47
2019-04-24T10:42:01.993Z,75.48
2019-04-24T10:42:57.227Z,78.09
2019-04-24T10:44:00.492Z,73.9
2019-04-24T10:45:51.268Z,68.04
2019-04-24T10:47:09.476Z,70.94
2019-04-24T10:48:50.503Z,74.62
2019-04-24T10:49:53.980Z,75.87
2019-04-24T10:52:51.478Z,67.82
2019-04-24T10:55:53.036Z,71.72
2019-04-24T10:57:49.315Z,76.35
2019-04-24T10:58:41.313Z,77
2019-04-24T10:59:46.908Z,79.41
2019-04-24T11:00:51.455Z,77
2019-04-24T11:01:49.510Z,73.52
2019-04-24T11:02:49.030Z,75.39
2019-04-24T11:03:49.500Z,80.71
2019-04-24T11:04:43.879Z,74.75
2019-04-24T11:05:38.722Z,80.84
2019-04-24T11:06:28.134Z,73.88
2019-04-24T11:07:31.086Z,81.04
2019-04-24T11:09:31.877Z,70.3
2019-04-24T11:10:53.524Z,79.39
2019-04-24T11:11:32.256Z,82.68
2019-04-24T11:12:25.816Z,72.72
2019-04-24T11:14:16.213Z,73.3
2019-04-24T11:15:19.992Z,67.98
2019-04-24T11:16:22.498Z,74.55
2019-04-24T11:17:27.566Z,72.14
2019-04-24T11:18:19.666Z,67.49
2019-04-24T11:19:19.692Z,79.82
2019-04-24T11:20:07.271Z,76.2
2019-04-24T11:22:02.188Z,81.56
2019-04-24T11:23:13.568Z,68.37
2019-04-24T11:24:11.037Z,80.4
2019-04-24T11:25:09.762Z,79.91
2019-04-24T11:26:13.252Z,77.01
2019-04-24T11:28:11.264Z,74.01
2019-04-24T11:28:53.256Z,75.95
2019-04-24T11:30:06.846Z,72.36
2019-04-24T11:31:04.476Z,78.41
2019-04-24T11:31:58.797Z,81.21
2019-04-24T11:34:14.629Z,80.3
2019-04-24T11:35:51.842Z,71.88
2019-04-24T11:37:00.105Z,79.33
2019-04-24T11:38:58.904Z,66.56
2019-04-24T11:40:12.197Z,69.56
2019-04-24T11:41:45.672Z,78.46
2019-04-24T11:42:43.120Z,66.66
2019-04-24T11:44:51.940Z,71.98
2019-04-24T11:45:52.280Z,64.82
2019-04-24T11:48:39.389Z,72.08
2019-04-24T11:49:36.890Z,72.56
2019-04-24T11:51:08.051Z,69.85
2019-04-24T11:51:33.150Z,71.01
2019-04-24T11:53:21.509Z,78.17
2019-04-24T11:54:33.661Z,68.88
2019-04-24T11:56:30.975Z,66.85
2019-04-24T11:58:49.236Z,75.17
2019-04-24T11:59:53.139Z,75.07
2019-04-24T12:01:01.663Z,75.46
2019-04-24T12:03:01.427Z,69.66
2019-04-24T12:04:16.153Z,72.33
2019-04-24T12:05:12.322Z,69.04
2019-04-24T12:06:02.923Z,70.59
2019-04-24T12:07:03.692Z,70.98
2019-04-24T12:08:06.365Z,70.88
2019-04-24T12:08:57.456Z,73.49
2019-04-24T12:10:00.951Z,65.37
2019-04-24T12:11:18.133Z,73.3
2019-04-24T12:11:53.436Z,77.94
2019-04-24T12:13:02.396Z,69.27
2019-04-24T12:13:58.272Z,77.01
2019-04-24T12:14:51.881Z,74.4
2019-04-24T12:15:58.043Z,73.91
2019-04-24T12:20:58.713Z,62.3
2019-04-24T12:21:49.842Z,65.69
2019-04-24T12:22:40.325Z,69.21
2019-04-24T12:24:40.429Z,68.24
2019-04-24T12:27:42.388Z,61.15
2019-04-24T12:28:46.384Z,62.21
2019-04-24T12:29:35.096Z,71.4
2019-04-24T12:30:40.274Z,65.98
2019-04-24T12:31:26.198Z,69.66
2019-04-24T12:32:25.170Z,73.18
2019-04-24T12:33:31.277Z,74.53
2019-04-24T12:34:24.397Z,76.95
2019-04-24T12:35:24.227Z,78.11
2019-04-24T12:36:20.397Z,76.24
2019-04-24T12:37:17.597Z,63.76
2019-04-24T12:38:20.377Z,73.33
2019-04-24T12:40:23.441Z,71.34
2019-04-24T12:41:16.571Z,79.66
2019-04-24T12:42:26.567Z,79.47
2019-04-24T12:43:12.943Z,77.63
2019-04-24T12:44:15.305Z,76.37
2019-04-24T12:45:08.426Z,81.21
2019-04-24T12:46:14.219Z,78.41
2019-04-24T12:47:10.171Z,74.15
2019-04-24T12:48:06.044Z,65.82
2019-04-24T12:49:09.059Z,63.69
2019-04-24T12:49:59.973Z,74.92
2019-04-24T12:52:59.984Z,69.59
2019-04-24T12:54:05.442Z,67.95
2019-04-24T12:54:58.972Z,72.69
2019-04-24T12:55:57.345Z,73.37
2019-04-24T12:59:47.694Z,66.95
2019-04-24T13:01:02.343Z,65.92
2019-04-24T13:01:49.889Z,65.72
2019-04-24T13:02:49.460Z,68.73
2019-04-24T13:04:11.177Z,75.5
2019-04-24T13:06:25.867Z,71.82
2019-04-24T13:07:52.948Z,63.08
2019-04-24T13:09:01.103Z,69.69
2019-04-24T13:10:45.402Z,72.89
2019-04-24T13:11:47.635Z,66.47
2019-04-24T13:12:51.675Z,72.75
2019-04-24T13:13:56.108Z,77.98
2019-04-24T13:14:36.875Z,72.17
2019-04-24T13:15:36.508Z,73.43
2019-04-24T13:16:46.161Z,67.91
2019-04-24T13:18:22.314Z,66.47
2019-04-24T13:19:59.740Z,68.27
2019-04-24T13:21:01.919Z,63.82
2019-04-24T13:22:01.535Z,66.24
2019-04-24T13:23:02.567Z,63.34
2019-04-24T13:24:04.711Z,68.08
2019-04-24T13:25:11.804Z,65.66
2019-04-24T13:27:15.885Z,60.85
2019-04-24T13:29:17.182Z,59.89
2019-04-24T13:31:15.078Z,60.3
2019-04-24T13:32:09.716Z,58.95
2019-04-24T13:33:22.965Z,57.98
2019-04-24T13:34:09.425Z,57.69
2019-04-24T13:35:18.745Z,58.3
2019-04-24T13:37:08.117Z,57.71
2019-04-24T13:38:09.860Z,58.3
2019-04-24T13:39:01.894Z,59.39
2019-04-24T13:44:04.362Z,57.07
2019-04-24T13:46:47.400Z,56.16
2019-04-24T13:47:57.337Z,57.17
2019-04-24T13:48:53.655Z,56.87
2019-04-24T13:49:53.644Z,56.2
2019-04-24T13:50:43.978Z,56.2
2019-04-24T13:51:50.207Z,56.29
2019-04-24T13:53:19.537Z,56.1
2019-04-24T13:54:47.999Z,56.1
2019-04-24T13:55:46.760Z,56.59
2019-04-24T13:56:37.609Z,55.71
2019-04-24T13:57:37.933Z,55.62
2019-04-24T13:58:35.616Z,55.81
2019-04-24T13:59:34.724Z,56.59
2019-04-24T14:01:47.102Z,56
2019-04-24T14:02:58.467Z,55.62
2019-04-24T14:03:33.722Z,55.81
2019-04-24T14:06:33.152Z,55.52
2019-04-24T14:08:37.499Z,56.1
2019-04-24T14:09:22.814Z,55.71
2019-04-24T14:13:04.303Z,55.42
2019-04-24T14:14:08.447Z,55.32
2019-04-24T14:15:11.428Z,55.32
2019-04-24T14:17:07.380Z,55.62
2019-04-24T14:20:22.660Z,54.67
2019-04-24T14:21:02.881Z,55.54
2019-04-24T14:22:00.531Z,55.64
2019-04-24T14:24:07.212Z,54.67
2019-04-24T14:25:14.536Z,54.77
2019-04-24T14:26:00.508Z,54.38
2019-04-24T14:26:58.886Z,54.96
2019-04-24T14:28:56.325Z,54.38
2019-04-24T14:31:57.092Z,55.06
2019-04-24T14:33:05.198Z,55.06
2019-04-24T14:33:51.574Z,55.04
2019-04-24T14:34:57.251Z,55.13
2019-04-24T14:35:52.155Z,55.22
2019-04-24T14:36:46.253Z,55.32
2019-04-24T14:37:40.213Z,56.03
2019-04-24T14:39:35.887Z,55.22
2019-04-24T14:40:36.922Z,54.74
2019-04-24T14:41:34.700Z,55.32
2019-04-24T14:42:38.623Z,55.04
2019-04-24T14:44:04.020Z,55.42
2019-04-24T14:45:53.961Z,55.52
2019-04-24T14:46:36.340Z,56.03
2019-04-24T14:48:23.651Z,55.26
2019-04-24T14:51:23.895Z,54.86
2019-04-24T14:52:30.504Z,54.77
2019-04-24T14:53:17.390Z,54.58
2019-04-24T14:55:22.235Z,54.19
2019-04-24T14:56:12.325Z,54.58
2019-04-24T14:57:12.740Z,54.86
2019-04-24T14:58:10.093Z,54.67
2019-04-24T14:59:17.288Z,55.26
2019-04-24T15:00:17.706Z,54.67
2019-04-24T15:01:09.250Z,55.16
2019-04-24T15:02:26.400Z,54.86
2019-04-24T15:03:03.330Z,54.55
2019-04-24T15:04:08.540Z,55.22
2019-04-24T15:06:13.359Z,55.16
2019-04-24T15:08:09.357Z,54.28
2019-04-24T15:09:58.246Z,54.67
2019-04-24T15:12:10.358Z,54.38
2019-04-24T15:13:02.177Z,54.09
2019-04-24T15:14:59.178Z,53.89
2019-04-24T15:16:49.731Z,53.8
2019-04-24T15:17:55.773Z,54.28
2019-04-24T15:18:57.268Z,54.77
2019-04-24T15:20:37.584Z,54.77
2019-04-24T15:21:44.504Z,54.67
2019-04-24T15:22:44.910Z,54.45
2019-04-24T15:24:01.583Z,54.55
2019-04-24T15:25:42.367Z,55.04
2019-04-24T15:26:41.158Z,55.13
2019-04-24T15:27:31.040Z,54.74
2019-04-24T15:28:27.621Z,55.04
2019-04-24T15:29:33.140Z,55
2019-04-24T15:30:28.880Z,55.1
2019-04-24T15:31:19.438Z,55.78
2019-04-24T15:32:24.683Z,55.58
2019-04-24T15:33:22.625Z,55
2019-04-24T15:34:29.732Z,55.68
2019-04-24T15:35:27.945Z,55.4
2019-04-24T15:36:20.310Z,55.88
2019-04-24T15:39:18.411Z,55.88
2019-04-24T15:40:27.919Z,55.68
2019-04-24T15:42:12.566Z,55.98
2019-04-24T15:43:17.289Z,56.07
2019-04-24T15:44:06.737Z,55.78
2019-04-24T15:45:05.163Z,55.98
2019-04-24T15:46:04.741Z,56.07
2019-04-24T15:47:15.523Z,56.16
2019-04-24T15:48:16.526Z,56.46
2019-04-24T15:49:03.756Z,56.92
2019-04-24T15:50:04.717Z,57.46
2019-04-24T15:50:56.914Z,57.56
2019-04-24T15:51:34.748Z,58.6
2019-04-24T15:52:29.223Z,59.08
2019-04-24T15:53:27.826Z,59.63
2019-04-24T15:54:26.427Z,60.31
2019-04-24T15:55:25.002Z,60.02
2019-04-24T15:56:23.778Z,60.38
2019-04-24T15:57:23.426Z,60.67
2019-04-24T15:58:29.825Z,61.6
2019-04-24T15:59:46.582Z,61.96
2019-04-24T16:00:57.647Z,62.51
2019-04-24T16:01:49.547Z,62.99
2019-04-24T16:05:11.946Z,64.66
2019-04-24T16:06:11.103Z,64.28
2019-04-24T16:07:09.290Z,64.63
2019-04-24T16:08:07.699Z,65.88
2019-04-24T16:09:06.251Z,65.2
2019-04-24T16:10:05.203Z,66.33
2019-04-24T16:11:03.755Z,65.85
2019-04-24T16:12:02.373Z,66.24
2019-04-24T16:13:02.630Z,65.46
2019-04-24T16:14:07.271Z,65.59
2019-04-24T16:15:19.626Z,65.37
2019-04-24T16:16:21.738Z,64.89
2019-04-24T16:20:26.508Z,66.42
2019-04-24T16:21:20.556Z,66.33
2019-04-24T16:22:14.165Z,66.24
2019-04-24T16:27:09.283Z,67.39
2019-04-24T16:29:09.850Z,67.39
2019-04-24T16:30:04.357Z,67.74
2019-04-24T16:31:09.743Z,68.03
2019-04-24T16:32:20.234Z,68.29
2019-04-24T16:33:59.561Z,68.86
2019-04-24T16:35:05.112Z,68.32
2019-04-24T16:36:11.428Z,68.76
2019-04-24T16:36:59.731Z,68.96
2019-04-24T16:40:16.583Z,70.27
2019-04-24T16:43:54.474Z,69.5
2019-04-24T16:44:47.218Z,70.56
2019-04-24T16:45:48.550Z,70.46
2019-04-24T16:48:01.540Z,69.98
2019-04-24T16:48:49.134Z,70.65
2019-04-24T16:50:00.217Z,70.75
2019-04-24T16:52:30.850Z,71.04
2019-04-24T16:53:35.397Z,71.52
2019-04-24T16:54:41.402Z,71.48
2019-04-24T16:55:38.847Z,71.71
2019-04-24T16:57:28.491Z,71.96
2019-04-24T16:58:40.869Z,71.96
2019-04-24T17:00:32.075Z,72.73
2019-04-24T17:01:33.016Z,72.73
2019-04-24T17:02:37.351Z,73.02
2019-04-24T17:04:28.649Z,72.64
2019-04-24T17:06:19.125Z,74.17
2019-04-24T17:07:10.406Z,74.27
2019-04-24T17:08:18.780Z,74.46
2019-04-24T17:09:25.571Z,74.55
2019-04-24T17:10:10.127Z,74.55
2019-04-24T17:14:16.566Z,75.32
2019-04-24T17:15:05.658Z,75.42
2019-04-24T17:16:06.282Z,75.77
2019-04-24T17:19:24.004Z,75.96
2019-04-24T17:21:56.117Z,76.64
2019-04-24T17:22:54.760Z,76.92
2019-04-24T17:23:57.566Z,77.21
2019-04-24T17:24:53.121Z,78.08
2019-04-24T17:25:57.879Z,77.69
2019-04-24T17:26:49.388Z,78.27
2019-04-24T17:27:49.786Z,79.22
2019-04-24T17:29:06.187Z,79.99
2019-04-24T17:29:41.165Z,80.05
2019-04-24T17:31:38.595Z,80.73
2019-04-24T17:32:34.782Z,81.4
2019-04-24T17:33:38.199Z,80.73
2019-04-24T17:34:41.869Z,81.49
2019-04-24T17:35:58.110Z,81.78
2019-04-24T17:36:20.195Z,82.35
2019-04-24T17:37:04.101Z,83.7
2019-04-24T17:38:02.575Z,83.89
2019-04-24T17:39:01.238Z,83.7
2019-04-24T17:39:59.947Z,83.18
2019-04-24T17:40:59.799Z,84.42
2019-04-24T17:42:01.904Z,84.71
2019-04-24T17:43:11.697Z,84.66
2019-04-24T17:44:27.928Z,84.52
2019-04-24T17:45:20.155Z,83.47
2019-04-24T17:46:14.466Z,84.33
2019-04-24T17:49:31.934Z,83.56
2019-04-24T17:52:27.338Z,83.56
2019-04-24T17:53:11.547Z,83.37
2019-04-24T17:54:09.225Z,82.79
2019-04-24T17:55:01.235Z,82.51
2019-04-24T17:55:59.674Z,81.84
2019-04-24T17:57:03.166Z,82.18
2019-04-24T17:57:42.876Z,81.6
2019-04-24T17:58:35.257Z,81.51
2019-04-24T17:59:33.188Z,81.79
2019-04-24T18:00:32.114Z,81.41
2019-04-24T18:01:31.277Z,80.35
2019-04-24T18:02:28.959Z,80.45
2019-04-24T18:03:27.709Z,79.59
2019-04-24T18:04:26.371Z,78.82
2019-04-24T18:05:25.239Z,78.44
2019-04-24T18:06:23.877Z,78.72
2019-04-24T18:07:22.525Z,78.69
2019-04-24T18:10:03.079Z,78.78
2019-04-24T18:11:01.559Z,78.49
2019-04-24T18:12:00.055Z,79.07
2019-04-24T18:38:18.160Z,81.46
2019-04-24T18:39:15.037Z,82
2019-04-24T18:40:13.999Z,82.38
2019-04-24T18:41:12.998Z,82.76
2019-04-24T18:42:12.108Z,83.53
2019-04-24T18:43:10.236Z,82.76
2019-04-24T18:44:08.588Z,82.76
2019-04-24T18:45:07.148Z,83.63
2019-04-24T18:46:06.608Z,83.72
2019-04-24T18:47:04.842Z,83.72
2019-04-24T18:48:03.149Z,83.67
2019-04-24T18:49:03.040Z,83.53
2019-04-24T18:50:02.269Z,83.86